sensor_id;sensor_type;location;lat;lon;timestamp;temperature;humidity
11944;DHT22;6031;50.220;10.122;2022-11-10T00:00:08;10.10;99.90
11944;DHT22;6031;50.220;10.122;2022-11-10T00:02:34;10.00;99.90
11944;DHT22;6031;50.220;10.122;2022-11-10T00:05:00;10.10;99.90
11944;DHT22;6031;50.220;10.122;2022-11-10T00:07:26;10.00;99.90
11944;DHT22;6031;50.220;10.122;2022-11-10T00:09:52;10.00;99.90
11944;DHT22;6031;50.220;10.122;2022-11-10T00:12:19;10.10;99.90
11944;DHT22;6031;50.220;10.122;2022-11-10T00:14:45;10.10;99.90
11944;DHT22;6031;50.220;10.122;2022-11-10T00:17:29;10.10;99.90
11944;DHT22;6031;50.220;10.122;2022-11-10T00:19:54;10.00;99.90
11944;DHT22;6031;50.220;10.122;2022-11-10T00:22:20;10.10;99.90
11944;DHT22;6031;50.220;10.122;2022-11-10T00:24:45;10.10;99.90
11944;DHT22;6031;50.220;10.122;2022-11-10T00:27:11;10.00;99.90
11944;DHT22;6031;50.220;10.122;2022-11-10T00:29:39;10.00;99.90
11944;DHT22;6031;50.220;10.122;2022-11-10T00:32:05;9.90;99.90
11944;DHT22;6031;50.220;10.122;2022-11-10T00:34:30;9.80;99.90
11944;DHT22;6031;50.220;10.122;2022-11-10T00:36:56;9.70;99.90
11944;DHT22;6031;50.220;10.122;2022-11-10T00:39:21;9.60;99.90
11944;DHT22;6031;50.220;10.122;2022-11-10T00:41:47;9.50;99.90
11944;DHT22;6031;50.220;10.122;2022-11-10T00:44:12;9.40;99.90
11944;DHT22;6031;50.220;10.122;2022-11-10T00:46:38;9.30;99.90
11944;DHT22;6031;50.220;10.122;2022-11-10T00:49:03;9.30;99.90
11944;DHT22;6031;50.220;10.122;2022-11-10T00:51:29;9.20;99.90
11944;DHT22;6031;50.220;10.122;2022-11-10T00:53:55;9.20;99.90
11944;DHT22;6031;50.220;10.122;2022-11-10T00:56:21;9.10;99.90
11944;DHT22;6031;50.220;10.122;2022-11-10T00:58:47;9.10;99.90
11944;DHT22;6031;50.220;10.122;2022-11-10T01:01:14;9.10;99.90
11944;DHT22;6031;50.220;10.122;2022-11-10T01:03:40;9.00;99.90
11944;DHT22;6031;50.220;10.122;2022-11-10T01:06:08;8.80;99.90
11944;DHT22;6031;50.220;10.122;2022-11-10T01:08:34;8.70;99.90
11944;DHT22;6031;50.220;10.122;2022-11-10T01:11:05;8.60;99.90
11944;DHT22;6031;50.220;10.122;2022-11-10T01:13:31;8.60;99.90
11944;DHT22;6031;50.220;10.122;2022-11-10T01:18:31;8.30;99.90
11944;DHT22;6031;50.220;10.122;2022-11-10T01:20:57;8.20;99.90
11944;DHT22;6031;50.220;10.122;2022-11-10T01:23:23;8.10;99.90
11944;DHT22;6031;50.220;10.122;2022-11-10T01:25:48;8.00;99.90
11944;DHT22;6031;50.220;10.122;2022-11-10T01:28:14;7.90;99.90
11944;DHT22;6031;50.220;10.122;2022-11-10T01:30:39;7.90;99.90
11944;DHT22;6031;50.220;10.122;2022-11-10T01:33:05;8.00;99.90
11944;DHT22;6031;50.220;10.122;2022-11-10T01:35:31;8.00;99.90
11944;DHT22;6031;50.220;10.122;2022-11-10T01:37:57;8.00;99.90
11944;DHT22;6031;50.220;10.122;2022-11-10T01:40:23;8.00;99.90
11944;DHT22;6031;50.220;10.122;2022-11-10T01:42:54;7.90;99.90
11944;DHT22;6031;50.220;10.122;2022-11-10T01:47:49;7.90;99.90
11944;DHT22;6031;50.220;10.122;2022-11-10T01:50:17;7.90;99.90
11944;DHT22;6031;50.220;10.122;2022-11-10T01:52:46;7.90;99.90
11944;DHT22;6031;50.220;10.122;2022-11-10T01:55:13;7.80;99.90
11944;DHT22;6031;50.220;10.122;2022-11-10T01:57:39;7.70;99.90
11944;DHT22;6031;50.220;10.122;2022-11-10T02:00:06;7.70;99.90
11944;DHT22;6031;50.220;10.122;2022-11-10T02:02:53;7.60;99.90
11944;DHT22;6031;50.220;10.122;2022-11-10T02:05:21;7.50;99.90
11944;DHT22;6031;50.220;10.122;2022-11-10T02:07:48;7.30;99.90
11944;DHT22;6031;50.220;10.122;2022-11-10T02:10:17;7.20;99.90
11944;DHT22;6031;50.220;10.122;2022-11-10T02:12:43;7.10;99.90
11944;DHT22;6031;50.220;10.122;2022-11-10T02:15:12;7.10;99.90
11944;DHT22;6031;50.220;10.122;2022-11-10T02:17:39;7.10;99.90
11944;DHT22;6031;50.220;10.122;2022-11-10T02:20:08;7.10;99.90
11944;DHT22;6031;50.220;10.122;2022-11-10T02:22:34;7.20;99.90
11944;DHT22;6031;50.220;10.122;2022-11-10T02:25:00;7.20;99.90
11944;DHT22;6031;50.220;10.122;2022-11-10T02:27:26;7.00;99.90
11944;DHT22;6031;50.220;10.122;2022-11-10T02:29:51;6.90;99.90
11944;DHT22;6031;50.220;10.122;2022-11-10T02:32:17;6.80;99.90
11944;DHT22;6031;50.220;10.122;2022-11-10T02:34:43;6.90;99.90
11944;DHT22;6031;50.220;10.122;2022-11-10T02:37:09;6.90;99.90
11944;DHT22;6031;50.220;10.122;2022-11-10T02:39:35;6.90;99.90
11944;DHT22;6031;50.220;10.122;2022-11-10T02:42:01;7.00;99.90
11944;DHT22;6031;50.220;10.122;2022-11-10T02:44:26;6.90;99.90
11944;DHT22;6031;50.220;10.122;2022-11-10T02:46:52;6.90;99.90
11944;DHT22;6031;50.220;10.122;2022-11-10T02:49:17;6.90;99.90
11944;DHT22;6031;50.220;10.122;2022-11-10T02:51:43;6.90;99.90
11944;DHT22;6031;50.220;10.122;2022-11-10T02:54:08;6.80;99.90
11944;DHT22;6031;50.220;10.122;2022-11-10T02:56:34;6.80;99.90
11944;DHT22;6031;50.220;10.122;2022-11-10T02:59:00;6.70;99.90
11944;DHT22;6031;50.220;10.122;2022-11-10T03:01:26;6.70;99.90
11944;DHT22;6031;50.220;10.122;2022-11-10T03:03:51;6.70;99.90
11944;DHT22;6031;50.220;10.122;2022-11-10T03:06:17;6.60;99.90
11944;DHT22;6031;50.220;10.122;2022-11-10T03:08:42;6.50;99.90
11944;DHT22;6031;50.220;10.122;2022-11-10T03:11:08;6.60;99.90
11944;DHT22;6031;50.220;10.122;2022-11-10T03:13:33;6.60;99.90
11944;DHT22;6031;50.220;10.122;2022-11-10T03:15:59;6.60;99.90
11944;DHT22;6031;50.220;10.122;2022-11-10T03:18:25;6.60;99.90
11944;DHT22;6031;50.220;10.122;2022-11-10T03:20:50;6.50;99.90
11944;DHT22;6031;50.220;10.122;2022-11-10T03:23:16;6.40;99.90
11944;DHT22;6031;50.220;10.122;2022-11-10T03:25:42;6.40;99.90
11944;DHT22;6031;50.220;10.122;2022-11-10T03:28:08;6.40;99.90
11944;DHT22;6031;50.220;10.122;2022-11-10T03:30:34;6.30;99.90
11944;DHT22;6031;50.220;10.122;2022-11-10T03:33:00;6.40;99.90
11944;DHT22;6031;50.220;10.122;2022-11-10T03:35:25;6.30;99.90
11944;DHT22;6031;50.220;10.122;2022-11-10T03:37:51;6.20;99.90
11944;DHT22;6031;50.220;10.122;2022-11-10T03:40:16;6.10;99.90
11944;DHT22;6031;50.220;10.122;2022-11-10T03:42:43;6.10;99.90
11944;DHT22;6031;50.220;10.122;2022-11-10T03:45:13;6.10;99.90
11944;DHT22;6031;50.220;10.122;2022-11-10T03:47:39;6.00;99.90
11944;DHT22;6031;50.220;10.122;2022-11-10T03:50:05;5.90;99.90
11944;DHT22;6031;50.220;10.122;2022-11-10T03:52:32;5.80;99.90
11944;DHT22;6031;50.220;10.122;2022-11-10T03:54:57;5.70;99.90
11944;DHT22;6031;50.220;10.122;2022-11-10T03:57:23;5.70;99.90
11944;DHT22;6031;50.220;10.122;2022-11-10T03:59:48;5.80;99.90
11944;DHT22;6031;50.220;10.122;2022-11-10T04:02:14;5.90;99.90
11944;DHT22;6031;50.220;10.122;2022-11-10T04:04:39;5.90;99.90
11944;DHT22;6031;50.220;10.122;2022-11-10T04:07:24;5.70;99.90
11944;DHT22;6031;50.220;10.122;2022-11-10T04:10:08;5.70;99.90
11944;DHT22;6031;50.220;10.122;2022-11-10T04:12:34;5.70;99.90
11944;DHT22;6031;50.220;10.122;2022-11-10T04:15:18;5.90;99.90
11944;DHT22;6031;50.220;10.122;2022-11-10T04:18:02;5.90;99.90
11944;DHT22;6031;50.220;10.122;2022-11-10T04:20:49;5.90;99.90
11944;DHT22;6031;50.220;10.122;2022-11-10T04:23:15;5.90;99.90
11944;DHT22;6031;50.220;10.122;2022-11-10T04:26:00;5.90;99.90
11944;DHT22;6031;50.220;10.122;2022-11-10T04:28:47;5.90;99.90
11944;DHT22;6031;50.220;10.122;2022-11-10T04:31:14;6.00;99.90
11944;DHT22;6031;50.220;10.122;2022-11-10T04:33:41;6.00;99.90
11944;DHT22;6031;50.220;10.122;2022-11-10T04:36:08;6.20;99.90
11944;DHT22;6031;50.220;10.122;2022-11-10T04:38:34;6.30;99.90
11944;DHT22;6031;50.220;10.122;2022-11-10T04:41:00;6.30;99.90
11944;DHT22;6031;50.220;10.122;2022-11-10T04:43:26;6.40;99.90
11944;DHT22;6031;50.220;10.122;2022-11-10T04:45:52;6.50;99.90
11944;DHT22;6031;50.220;10.122;2022-11-10T04:48:18;6.60;99.90
11944;DHT22;6031;50.220;10.122;2022-11-10T04:50:43;6.60;99.90
11944;DHT22;6031;50.220;10.122;2022-11-10T04:53:09;6.60;99.90
11944;DHT22;6031;50.220;10.122;2022-11-10T04:55:38;6.70;99.90
11944;DHT22;6031;50.220;10.122;2022-11-10T04:58:05;6.70;99.90
11944;DHT22;6031;50.220;10.122;2022-11-10T05:00:31;6.80;99.90
11944;DHT22;6031;50.220;10.122;2022-11-10T05:03:00;7.00;99.90
11944;DHT22;6031;50.220;10.122;2022-11-10T05:05:26;7.10;99.90
11944;DHT22;6031;50.220;10.122;2022-11-10T05:07:52;7.00;99.90
11944;DHT22;6031;50.220;10.122;2022-11-10T05:10:18;7.10;99.90
11944;DHT22;6031;50.220;10.122;2022-11-10T05:12:43;7.00;99.90
11944;DHT22;6031;50.220;10.122;2022-11-10T05:15:09;7.00;99.90
11944;DHT22;6031;50.220;10.122;2022-11-10T05:17:35;6.90;99.90
11944;DHT22;6031;50.220;10.122;2022-11-10T05:20:01;6.90;99.90
11944;DHT22;6031;50.220;10.122;2022-11-10T05:22:26;7.00;99.90
11944;DHT22;6031;50.220;10.122;2022-11-10T05:24:52;7.10;99.90
11944;DHT22;6031;50.220;10.122;2022-11-10T05:27:17;7.10;99.90
11944;DHT22;6031;50.220;10.122;2022-11-10T05:29:43;7.10;99.90
11944;DHT22;6031;50.220;10.122;2022-11-10T05:32:08;7.20;99.90
11944;DHT22;6031;50.220;10.122;2022-11-10T05:34:34;7.20;99.90
11944;DHT22;6031;50.220;10.122;2022-11-10T05:36:59;7.20;99.90
11944;DHT22;6031;50.220;10.122;2022-11-10T05:39:25;7.10;99.90
11944;DHT22;6031;50.220;10.122;2022-11-10T05:41:50;7.10;99.90
11944;DHT22;6031;50.220;10.122;2022-11-10T05:44:16;7.10;99.90
11944;DHT22;6031;50.220;10.122;2022-11-10T05:46:41;7.20;99.90
11944;DHT22;6031;50.220;10.122;2022-11-10T05:49:07;7.20;99.90
11944;DHT22;6031;50.220;10.122;2022-11-10T05:51:33;7.10;99.90
11944;DHT22;6031;50.220;10.122;2022-11-10T05:53:59;7.20;99.90
11944;DHT22;6031;50.220;10.122;2022-11-10T05:56:24;7.20;99.90
11944;DHT22;6031;50.220;10.122;2022-11-10T05:58:50;7.20;99.90
11944;DHT22;6031;50.220;10.122;2022-11-10T06:01:15;7.10;99.90
11944;DHT22;6031;50.220;10.122;2022-11-10T06:03:41;7.20;99.90
11944;DHT22;6031;50.220;10.122;2022-11-10T06:06:06;7.20;99.90
11944;DHT22;6031;50.220;10.122;2022-11-10T06:08:32;7.30;99.90
11944;DHT22;6031;50.220;10.122;2022-11-10T06:10:57;7.30;99.90
11944;DHT22;6031;50.220;10.122;2022-11-10T06:13:23;7.30;99.90
11944;DHT22;6031;50.220;10.122;2022-11-10T06:15:50;7.30;99.90
11944;DHT22;6031;50.220;10.122;2022-11-10T06:18:16;7.20;99.90
11944;DHT22;6031;50.220;10.122;2022-11-10T06:20:41;7.10;99.90
11944;DHT22;6031;50.220;10.122;2022-11-10T06:23:09;7.00;99.90
11944;DHT22;6031;50.220;10.122;2022-11-10T06:25:37;7.10;99.90
11944;DHT22;6031;50.220;10.122;2022-11-10T06:28:03;7.10;99.90
11944;DHT22;6031;50.220;10.122;2022-11-10T06:30:30;7.20;99.90
11944;DHT22;6031;50.220;10.122;2022-11-10T06:32:56;7.30;99.90
11944;DHT22;6031;50.220;10.122;2022-11-10T06:35:23;7.40;99.90
11944;DHT22;6031;50.220;10.122;2022-11-10T06:38:03;7.40;99.90
11944;DHT22;6031;50.220;10.122;2022-11-10T06:40:29;7.50;99.90
11944;DHT22;6031;50.220;10.122;2022-11-10T06:42:56;7.50;99.90
11944;DHT22;6031;50.220;10.122;2022-11-10T06:45:22;7.60;99.90
11944;DHT22;6031;50.220;10.122;2022-11-10T06:47:47;7.60;99.90
11944;DHT22;6031;50.220;10.122;2022-11-10T06:50:13;7.70;99.90
11944;DHT22;6031;50.220;10.122;2022-11-10T06:52:39;7.70;99.90
11944;DHT22;6031;50.220;10.122;2022-11-10T06:55:05;7.80;99.90
11944;DHT22;6031;50.220;10.122;2022-11-10T06:57:37;7.80;99.90
11944;DHT22;6031;50.220;10.122;2022-11-10T07:00:03;7.80;99.90
11944;DHT22;6031;50.220;10.122;2022-11-10T07:02:29;7.90;99.90
11944;DHT22;6031;50.220;10.122;2022-11-10T07:04:54;7.90;99.90
11944;DHT22;6031;50.220;10.122;2022-11-10T07:07:20;8.00;99.90
11944;DHT22;6031;50.220;10.122;2022-11-10T07:09:46;8.00;99.90
11944;DHT22;6031;50.220;10.122;2022-11-10T07:12:11;8.10;99.90
11944;DHT22;6031;50.220;10.122;2022-11-10T07:14:37;8.20;99.90
11944;DHT22;6031;50.220;10.122;2022-11-10T07:17:02;8.30;99.90
11944;DHT22;6031;50.220;10.122;2022-11-10T07:19:28;8.30;99.90
11944;DHT22;6031;50.220;10.122;2022-11-10T07:21:53;8.30;99.90
11944;DHT22;6031;50.220;10.122;2022-11-10T07:24:19;8.30;99.90
11944;DHT22;6031;50.220;10.122;2022-11-10T07:26:44;8.30;99.90
11944;DHT22;6031;50.220;10.122;2022-11-10T07:29:10;8.30;99.90
11944;DHT22;6031;50.220;10.122;2022-11-10T07:31:35;8.40;99.90
11944;DHT22;6031;50.220;10.122;2022-11-10T07:34:01;8.40;99.90
11944;DHT22;6031;50.220;10.122;2022-11-10T07:36:26;8.40;99.90
11944;DHT22;6031;50.220;10.122;2022-11-10T07:38:53;8.40;99.90
11944;DHT22;6031;50.220;10.122;2022-11-10T07:41:19;8.50;99.90
11944;DHT22;6031;50.220;10.122;2022-11-10T07:43:45;8.50;99.90
11944;DHT22;6031;50.220;10.122;2022-11-10T07:46:10;8.50;99.90
11944;DHT22;6031;50.220;10.122;2022-11-10T07:48:36;8.50;99.90
11944;DHT22;6031;50.220;10.122;2022-11-10T07:51:01;8.50;99.90
11944;DHT22;6031;50.220;10.122;2022-11-10T07:53:27;8.50;99.90
11944;DHT22;6031;50.220;10.122;2022-11-10T07:55:52;8.60;99.90
11944;DHT22;6031;50.220;10.122;2022-11-10T07:58:19;8.60;99.90
11944;DHT22;6031;50.220;10.122;2022-11-10T08:00:45;8.70;99.90
11944;DHT22;6031;50.220;10.122;2022-11-10T08:03:13;8.80;99.90
11944;DHT22;6031;50.220;10.122;2022-11-10T08:05:39;8.90;99.90
11944;DHT22;6031;50.220;10.122;2022-11-10T08:08:05;9.00;99.90
11944;DHT22;6031;50.220;10.122;2022-11-10T08:10:32;9.00;99.90
11944;DHT22;6031;50.220;10.122;2022-11-10T08:12:59;8.90;99.90
11944;DHT22;6031;50.220;10.122;2022-11-10T08:15:26;9.00;99.90
11944;DHT22;6031;50.220;10.122;2022-11-10T08:17:57;9.10;99.90
11944;DHT22;6031;50.220;10.122;2022-11-10T08:20:23;9.10;99.90
11944;DHT22;6031;50.220;10.122;2022-11-10T08:22:51;9.20;99.90
11944;DHT22;6031;50.220;10.122;2022-11-10T08:25:20;9.30;99.90
11944;DHT22;6031;50.220;10.122;2022-11-10T08:27:45;9.50;99.90
11944;DHT22;6031;50.220;10.122;2022-11-10T08:30:11;9.50;99.90
11944;DHT22;6031;50.220;10.122;2022-11-10T08:32:37;9.60;99.90
11944;DHT22;6031;50.220;10.122;2022-11-10T08:35:03;9.70;99.90
11944;DHT22;6031;50.220;10.122;2022-11-10T08:37:28;9.70;99.90
11944;DHT22;6031;50.220;10.122;2022-11-10T08:39:54;9.80;99.90
11944;DHT22;6031;50.220;10.122;2022-11-10T08:42:19;9.80;99.90
11944;DHT22;6031;50.220;10.122;2022-11-10T08:44:45;9.90;99.90
11944;DHT22;6031;50.220;10.122;2022-11-10T08:47:10;9.90;99.90
11944;DHT22;6031;50.220;10.122;2022-11-10T08:49:36;10.00;99.90
11944;DHT22;6031;50.220;10.122;2022-11-10T08:52:01;10.00;99.90
11944;DHT22;6031;50.220;10.122;2022-11-10T08:54:27;10.00;99.90
11944;DHT22;6031;50.220;10.122;2022-11-10T08:56:52;10.00;99.90
11944;DHT22;6031;50.220;10.122;2022-11-10T08:59:18;10.00;99.90
11944;DHT22;6031;50.220;10.122;2022-11-10T09:01:43;10.10;99.90
11944;DHT22;6031;50.220;10.122;2022-11-10T09:04:09;10.10;99.90
11944;DHT22;6031;50.220;10.122;2022-11-10T09:06:34;10.10;99.90
11944;DHT22;6031;50.220;10.122;2022-11-10T09:09:00;10.20;99.90
11944;DHT22;6031;50.220;10.122;2022-11-10T09:11:25;10.20;99.90
11944;DHT22;6031;50.220;10.122;2022-11-10T09:13:51;10.20;99.90
11944;DHT22;6031;50.220;10.122;2022-11-10T09:16:17;10.20;99.90
11944;DHT22;6031;50.220;10.122;2022-11-10T09:18:42;10.20;99.90
11944;DHT22;6031;50.220;10.122;2022-11-10T09:21:07;10.20;99.90
11944;DHT22;6031;50.220;10.122;2022-11-10T09:23:36;10.20;99.90
11944;DHT22;6031;50.220;10.122;2022-11-10T09:26:02;10.30;99.90
11944;DHT22;6031;50.220;10.122;2022-11-10T09:28:30;10.30;99.90
11944;DHT22;6031;50.220;10.122;2022-11-10T09:30:55;10.50;99.90
11944;DHT22;6031;50.220;10.122;2022-11-10T09:33:21;10.40;99.90
11944;DHT22;6031;50.220;10.122;2022-11-10T09:35:46;10.50;99.90
11944;DHT22;6031;50.220;10.122;2022-11-10T09:38:12;10.50;99.90
11944;DHT22;6031;50.220;10.122;2022-11-10T09:43:34;10.50;99.90
11944;DHT22;6031;50.220;10.122;2022-11-10T09:46:08;10.60;99.90
11944;DHT22;6031;50.220;10.122;2022-11-10T09:48:40;10.70;99.90
11944;DHT22;6031;50.220;10.122;2022-11-10T09:54:23;10.80;99.90
11944;DHT22;6031;50.220;10.122;2022-11-10T09:56:51;10.70;99.90
11944;DHT22;6031;50.220;10.122;2022-11-10T09:59:29;10.80;99.90
11944;DHT22;6031;50.220;10.122;2022-11-10T10:05:22;11.00;99.90
11944;DHT22;6031;50.220;10.122;2022-11-10T10:10:44;11.50;99.90
11944;DHT22;6031;50.220;10.122;2022-11-10T10:13:26;11.50;99.90
11944;DHT22;6031;50.220;10.122;2022-11-10T10:18:57;11.40;99.90
11944;DHT22;6031;50.220;10.122;2022-11-10T10:21:33;11.50;99.90
11944;DHT22;6031;50.220;10.122;2022-11-10T10:24:03;11.70;99.90
11944;DHT22;6031;50.220;10.122;2022-11-10T10:26:31;11.70;99.90
11944;DHT22;6031;50.220;10.122;2022-11-10T10:29:04;11.80;99.90
11944;DHT22;6031;50.220;10.122;2022-11-10T10:31:41;11.90;99.90
11944;DHT22;6031;50.220;10.122;2022-11-10T10:34:18;11.90;99.90
11944;DHT22;6031;50.220;10.122;2022-11-10T10:36:44;11.80;99.90
11944;DHT22;6031;50.220;10.122;2022-11-10T10:39:17;11.50;99.90
11944;DHT22;6031;50.220;10.122;2022-11-10T10:41:44;11.20;99.90
11944;DHT22;6031;50.220;10.122;2022-11-10T10:44:15;11.40;99.90
11944;DHT22;6031;50.220;10.122;2022-11-10T10:46:55;11.70;99.90
11944;DHT22;6031;50.220;10.122;2022-11-10T10:49:29;12.10;99.90
11944;DHT22;6031;50.220;10.122;2022-11-10T10:52:11;12.60;99.90
11944;DHT22;6031;50.220;10.122;2022-11-10T10:54:37;14.10;99.90
11944;DHT22;6031;50.220;10.122;2022-11-10T10:57:23;14.50;99.90
11944;DHT22;6031;50.220;10.122;2022-11-10T10:59:49;14.50;99.90
11944;DHT22;6031;50.220;10.122;2022-11-10T11:05:15;14.10;99.90
11944;DHT22;6031;50.220;10.122;2022-11-10T11:07:49;13.90;99.90
11944;DHT22;6031;50.220;10.122;2022-11-10T11:10:27;13.80;99.90
11944;DHT22;6031;50.220;10.122;2022-11-10T11:12:53;13.30;99.90
11944;DHT22;6031;50.220;10.122;2022-11-10T11:15:29;13.00;99.90
11944;DHT22;6031;50.220;10.122;2022-11-10T11:17:59;12.60;99.90
11944;DHT22;6031;50.220;10.122;2022-11-10T11:20:45;12.30;99.90
11944;DHT22;6031;50.220;10.122;2022-11-10T11:29:07;12.10;99.90
11944;DHT22;6031;50.220;10.122;2022-11-10T11:34:39;13.20;99.90
11944;DHT22;6031;50.220;10.122;2022-11-10T11:39:59;15.70;99.90
11944;DHT22;6031;50.220;10.122;2022-11-10T11:42:40;15.20;99.90
11944;DHT22;6031;50.220;10.122;2022-11-10T11:45:14;14.70;99.90
11944;DHT22;6031;50.220;10.122;2022-11-10T11:47:58;14.60;99.90
11944;DHT22;6031;50.220;10.122;2022-11-10T11:50:38;14.40;99.90
11944;DHT22;6031;50.220;10.122;2022-11-10T11:53:29;13.90;99.90
11944;DHT22;6031;50.220;10.122;2022-11-10T12:01:35;13.50;99.90
11944;DHT22;6031;50.220;10.122;2022-11-10T12:09:45;14.30;99.90
11944;DHT22;6031;50.220;10.122;2022-11-10T12:15:09;13.50;99.90
11944;DHT22;6031;50.220;10.122;2022-11-10T12:17:54;13.20;99.90
11944;DHT22;6031;50.220;10.122;2022-11-10T12:28:24;13.00;99.90
11944;DHT22;6031;50.220;10.122;2022-11-10T12:30:52;13.20;99.90
11944;DHT22;6031;50.220;10.122;2022-11-10T12:33:40;13.10;99.90
11944;DHT22;6031;50.220;10.122;2022-11-10T12:36:11;13.00;99.90
11944;DHT22;6031;50.220;10.122;2022-11-10T12:38:46;13.40;99.90
11944;DHT22;6031;50.220;10.122;2022-11-10T12:41:18;13.70;99.90
11944;DHT22;6031;50.220;10.122;2022-11-10T12:46:15;15.30;99.90
11944;DHT22;6031;50.220;10.122;2022-11-10T12:51:55;15.40;99.90
11944;DHT22;6031;50.220;10.122;2022-11-10T12:54:25;16.10;99.90
11944;DHT22;6031;50.220;10.122;2022-11-10T12:56:55;17.60;99.90
11944;DHT22;6031;50.220;10.122;2022-11-10T12:59:28;17.60;99.90
11944;DHT22;6031;50.220;10.122;2022-11-10T13:04:36;18.70;99.90
11944;DHT22;6031;50.220;10.122;2022-11-10T13:07:03;18.10;99.90
11944;DHT22;6031;50.220;10.122;2022-11-10T13:09:35;16.80;99.90
11944;DHT22;6031;50.220;10.122;2022-11-10T13:12:05;16.80;99.90
11944;DHT22;6031;50.220;10.122;2022-11-10T13:14:31;17.10;99.90
11944;DHT22;6031;50.220;10.122;2022-11-10T13:16:57;17.60;99.90
11944;DHT22;6031;50.220;10.122;2022-11-10T13:24:55;21.30;99.90
11944;DHT22;6031;50.220;10.122;2022-11-10T13:30:01;19.10;99.90
11944;DHT22;6031;50.220;10.122;2022-11-10T13:32:32;17.60;99.90
11944;DHT22;6031;50.220;10.122;2022-11-10T13:37:52;15.30;99.90
11944;DHT22;6031;50.220;10.122;2022-11-10T13:45:30;13.90;99.90
11944;DHT22;6031;50.220;10.122;2022-11-10T13:58:43;13.40;99.90
11944;DHT22;6031;50.220;10.122;2022-11-10T14:01:22;13.40;99.90
11944;DHT22;6031;50.220;10.122;2022-11-10T14:06:40;13.20;99.90
11944;DHT22;6031;50.220;10.122;2022-11-10T14:09:31;13.20;99.90
11944;DHT22;6031;50.220;10.122;2022-11-10T14:17:23;12.80;99.90
11944;DHT22;6031;50.220;10.122;2022-11-10T14:19:50;12.70;99.90
11944;DHT22;6031;50.220;10.122;2022-11-10T14:22:20;12.60;99.90
11944;DHT22;6031;50.220;10.122;2022-11-10T14:25:13;12.50;99.90
11944;DHT22;6031;50.220;10.122;2022-11-10T14:27:39;12.40;99.90
11944;DHT22;6031;50.220;10.122;2022-11-10T14:33:03;12.20;99.90
11944;DHT22;6031;50.220;10.122;2022-11-10T14:35:35;12.10;
11944;DHT22;6031;50.220;10.122;2022-11-10T14:38:33;12.10;99.90
11944;DHT22;6031;50.220;10.122;2022-11-10T14:41:02;12.00;99.90
11944;DHT22;6031;50.220;10.122;2022-11-10T14:43:31;12.00;99.90
11944;DHT22;6031;50.220;10.122;2022-11-10T14:45:58;11.90;99.90
11944;DHT22;6031;50.220;10.122;2022-11-10T14:48:26;11.90;99.90
11944;DHT22;6031;50.220;10.122;2022-11-10T14:50:53;11.90;99.90
11944;DHT22;6031;50.220;10.122;2022-11-10T14:53:27;11.80;99.90
11944;DHT22;6031;50.220;10.122;2022-11-10T14:55:54;11.80;99.90
11944;DHT22;6031;50.220;10.122;2022-11-10T14:58:40;11.70;99.90
11944;DHT22;6031;50.220;10.122;2022-11-10T15:03:48;11.40;99.90
11944;DHT22;6031;50.220;10.122;2022-11-10T15:06:14;11.30;99.90
11944;DHT22;6031;50.220;10.122;2022-11-10T15:08:40;11.20;99.90
11944;DHT22;6031;50.220;10.122;2022-11-10T15:11:09;11.10;99.90
11944;DHT22;6031;50.220;10.122;2022-11-10T15:13:52;11.00;99.90
11944;DHT22;6031;50.220;10.122;2022-11-10T15:18:46;10.80;99.90
11944;DHT22;6031;50.220;10.122;2022-11-10T15:21:15;10.60;99.90
11944;DHT22;6031;50.220;10.122;2022-11-10T15:23:44;10.50;99.90
11944;DHT22;6031;50.220;10.122;2022-11-10T15:26:20;10.30;99.90
11944;DHT22;6031;50.220;10.122;2022-11-10T15:28:46;10.20;99.90
11944;DHT22;6031;50.220;10.122;2022-11-10T15:31:24;10.10;99.90
11944;DHT22;6031;50.220;10.122;2022-11-10T15:33:56;10.00;99.90
11944;DHT22;6031;50.220;10.122;2022-11-10T15:39:14;9.80;99.90
11944;DHT22;6031;50.220;10.122;2022-11-10T15:41:45;9.70;99.90
11944;DHT22;6031;50.220;10.122;2022-11-10T15:46:41;9.40;99.90
11944;DHT22;6031;50.220;10.122;2022-11-10T15:49:25;9.30;99.90
11944;DHT22;6031;50.220;10.122;2022-11-10T15:51:58;9.30;99.90
11944;DHT22;6031;50.220;10.122;2022-11-10T15:54:26;9.30;99.90
11944;DHT22;6031;50.220;10.122;2022-11-10T15:56:53;9.10;99.90
11944;DHT22;6031;50.220;10.122;2022-11-10T15:59:19;9.00;99.90
11944;DHT22;6031;50.220;10.122;2022-11-10T16:01:44;8.90;99.90
11944;DHT22;6031;50.220;10.122;2022-11-10T16:04:11;8.80;99.90
11944;DHT22;6031;50.220;10.122;2022-11-10T16:06:37;8.60;99.90
11944;DHT22;6031;50.220;10.122;2022-11-10T16:09:04;8.50;99.90
11944;DHT22;6031;50.220;10.122;2022-11-10T16:11:31;8.40;99.90
11944;DHT22;6031;50.220;10.122;2022-11-10T16:13:59;8.40;99.90
11944;DHT22;6031;50.220;10.122;2022-11-10T16:16:25;8.30;99.90
11944;DHT22;6031;50.220;10.122;2022-11-10T16:18:51;8.20;99.90
11944;DHT22;6031;50.220;10.122;2022-11-10T16:21:19;8.10;99.90
11944;DHT22;6031;50.220;10.122;2022-11-10T16:23:46;8.10;99.90
11944;DHT22;6031;50.220;10.122;2022-11-10T16:26:31;8.10;99.90
11944;DHT22;6031;50.220;10.122;2022-11-10T16:28:57;8.00;99.90
11944;DHT22;6031;50.220;10.122;2022-11-10T16:31:25;7.90;99.90
11944;DHT22;6031;50.220;10.122;2022-11-10T16:33:51;7.90;99.90
11944;DHT22;6031;50.220;10.122;2022-11-10T16:36:24;7.80;99.90
11944;DHT22;6031;50.220;10.122;2022-11-10T16:38:50;8.00;99.90
11944;DHT22;6031;50.220;10.122;2022-11-10T16:41:17;8.00;99.90
11944;DHT22;6031;50.220;10.122;2022-11-10T16:43:42;7.90;99.90
11944;DHT22;6031;50.220;10.122;2022-11-10T16:46:22;7.80;99.90
11944;DHT22;6031;50.220;10.122;2022-11-10T16:48:51;7.80;99.90
11944;DHT22;6031;50.220;10.122;2022-11-10T16:51:17;7.70;99.90
11944;DHT22;6031;50.220;10.122;2022-11-10T16:53:43;7.60;99.90
11944;DHT22;6031;50.220;10.122;2022-11-10T16:56:13;7.50;99.90
11944;DHT22;6031;50.220;10.122;2022-11-10T16:58:39;7.30;99.90
11944;DHT22;6031;50.220;10.122;2022-11-10T17:01:05;7.30;99.90
11944;DHT22;6031;50.220;10.122;2022-11-10T17:03:36;7.20;99.90
11944;DHT22;6031;50.220;10.122;2022-11-10T17:06:04;7.30;99.90
11944;DHT22;6031;50.220;10.122;2022-11-10T17:08:30;7.20;99.90
11944;DHT22;6031;50.220;10.122;2022-11-10T17:10:58;7.20;99.90
11944;DHT22;6031;50.220;10.122;2022-11-10T17:13:24;7.20;99.90
11944;DHT22;6031;50.220;10.122;2022-11-10T17:15:52;7.10;99.90
11944;DHT22;6031;50.220;10.122;2022-11-10T17:18:21;7.00;99.90
11944;DHT22;6031;50.220;10.122;2022-11-10T17:20:50;6.90;99.90
11944;DHT22;6031;50.220;10.122;2022-11-10T17:23:18;6.90;99.90
11944;DHT22;6031;50.220;10.122;2022-11-10T17:25:45;6.80;99.90
11944;DHT22;6031;50.220;10.122;2022-11-10T17:28:13;6.80;99.90
11944;DHT22;6031;50.220;10.122;2022-11-10T17:30:40;6.80;99.90
11944;DHT22;6031;50.220;10.122;2022-11-10T17:33:06;6.70;99.90
11944;DHT22;6031;50.220;10.122;2022-11-10T17:35:43;6.60;99.90
11944;DHT22;6031;50.220;10.122;2022-11-10T17:38:12;6.60;99.90
11944;DHT22;6031;50.220;10.122;2022-11-10T17:40:40;6.60;99.90